SAS594 EETN-EPWA
Flight info
| Callsign | SAS594 |
|---|---|
| Flight time | 1h 20m |
| Altitude | 38000 |
| Route | ORTAX DCT LUTAL DCT BERIL/N0470F390 DCT BOKSU/N0469F400 M857 GERVI DCT NEPOX |
| Aircraft | B763/H-SDE3FGHIM3RWXY/LB1 |
Departure
| Time | 2026-05-06 16:23 |
|---|---|
| Airport | Lennart Meri Tallinn Airport (EETN) |
Arrival
| Time | 2026-05-06 17:44 |
|---|---|
| Airport | Warsaw Chopin Airport (EPWA) |
| Time | Latitude | Longitude | Altitude | Speed | Heading |
|---|---|---|---|---|---|
| 2026-05-06 16:06 | 59.41585 | 24.80851 | 146 ft | 0 kts | 180° |
| 2026-05-06 16:07 | 59.41584 | 24.80851 | 146 ft | 0 kts | 180° |
| 2026-05-06 16:09 | 59.41583 | 24.80851 | 146 ft | 0 kts | 180° |
| 2026-05-06 16:10 | 59.41582 | 24.80851 | 146 ft | 0 kts | 180° |
| 2026-05-06 16:12 | 59.41581 | 24.80851 | 146 ft | 0 kts | 180° |
| 2026-05-06 16:14 | 59.41580 | 24.80851 | 146 ft | 0 kts | 180° |
| 2026-05-06 16:16 | 59.41579 | 24.80851 | 146 ft | 0 kts | 180° |
| 2026-05-06 16:16 | 59.41578 | 24.80851 | 146 ft | 4 kts | 180° |
| 2026-05-06 16:17 | 59.41513 | 24.80887 | 146 ft | 7 kts | 97° |
| 2026-05-06 16:17 | 59.41508 | 24.80987 | 146 ft | 10 kts | 94° |
| 2026-05-06 16:17 | 59.41507 | 24.81261 | 146 ft | 32 kts | 90° |
| 2026-05-06 16:17 | 59.41509 | 24.81697 | 146 ft | 33 kts | 88° |
| 2026-05-06 16:18 | 59.41507 | 24.82117 | 146 ft | 28 kts | 90° |
| 2026-05-06 16:18 | 59.41505 | 24.82478 | 146 ft | 24 kts | 90° |
| 2026-05-06 16:18 | 59.41506 | 24.82778 | 146 ft | 20 kts | 90° |
| 2026-05-06 16:18 | 59.41505 | 24.83031 | 146 ft | 19 kts | 91° |
| 2026-05-06 16:19 | 59.41504 | 24.83321 | 146 ft | 25 kts | 90° |
| 2026-05-06 16:19 | 59.41503 | 24.83710 | 146 ft | 32 kts | 89° |
| 2026-05-06 16:19 | 59.41505 | 24.84023 | 146 ft | 37 kts | 90° |
| 2026-05-06 16:19 | 59.41500 | 24.84524 | 146 ft | 34 kts | 93° |
| 2026-05-06 16:20 | 59.41498 | 24.84960 | 146 ft | 30 kts | 90° |
| 2026-05-06 16:20 | 59.41498 | 24.85334 | 146 ft | 25 kts | 90° |
| 2026-05-06 16:20 | 59.41497 | 24.85654 | 146 ft | 22 kts | 90° |
| 2026-05-06 16:20 | 59.41498 | 24.85945 | 146 ft | 19 kts | 89° |
| 2026-05-06 16:21 | 59.41497 | 24.86185 | 146 ft | 16 kts | 91° |
| 2026-05-06 16:21 | 59.41496 | 24.86448 | 146 ft | 22 kts | 90° |
| 2026-05-06 16:21 | 59.41489 | 24.86646 | 146 ft | 12 kts | 115° |
| 2026-05-06 16:21 | 59.41447 | 24.86700 | 146 ft | 3 kts | 181° |
| 2026-05-06 16:22 | 59.41388 | 24.86698 | 146 ft | 8 kts | 181° |
| 2026-05-06 16:22 | 59.41324 | 24.86644 | 146 ft | 29 kts | 231° |
| 2026-05-06 16:22 | 59.41307 | 24.86282 | 146 ft | 57 kts | 271° |
| 2026-05-06 16:22 | 59.41316 | 24.84924 | 146 ft | 139 kts | 271° |
| 2026-05-06 16:23 | 59.41331 | 24.82556 | 226 ft | 201 kts | 270° |
| 2026-05-06 16:23 | 59.41305 | 24.79766 | 1222 ft | 212 kts | 270° |
| 2026-05-06 16:23 | 59.41274 | 24.76742 | 2330 ft | 228 kts | 270° |
| 2026-05-06 16:23 | 59.41245 | 24.73566 | 3446 ft | 231 kts | 272° |
| 2026-05-06 16:24 | 59.41196 | 24.70398 | 4569 ft | 234 kts | 271° |
| 2026-05-06 16:24 | 59.41070 | 24.67181 | 5688 ft | 241 kts | 263° |
| 2026-05-06 16:24 | 59.40367 | 24.64144 | 6810 ft | 252 kts | 239° |
| 2026-05-06 16:24 | 59.39029 | 24.61851 | 7932 ft | 262 kts | 218° |
| 2026-05-06 16:25 | 59.37370 | 24.60252 | 9061 ft | 266 kts | 208° |
| 2026-05-06 16:25 | 59.35644 | 24.58979 | 10178 ft | 266 kts | 204° |
| 2026-05-06 16:25 | 59.33906 | 24.57888 | 11282 ft | 261 kts | 202° |
| 2026-05-06 16:25 | 59.32114 | 24.56864 | 11852 ft | 273 kts | 201° |
| 2026-05-06 16:26 | 59.30218 | 24.55818 | 12041 ft | 295 kts | 200° |
| 2026-05-06 16:26 | 59.28149 | 24.54709 | 12239 ft | 318 kts | 199° |
| 2026-05-06 16:26 | 59.25948 | 24.53575 | 12462 ft | 338 kts | 198° |
| 2026-05-06 16:26 | 59.23647 | 24.52422 | 12920 ft | 349 kts | 198° |
| 2026-05-06 16:27 | 59.21255 | 24.51240 | 13575 ft | 353 kts | 198° |
| 2026-05-06 16:27 | 59.18851 | 24.50124 | 14398 ft | 354 kts | 197° |
| 2026-05-06 16:27 | 59.16443 | 24.49026 | 15023 ft | 359 kts | 197° |
| 2026-05-06 16:27 | 59.13977 | 24.47897 | 15531 ft | 368 kts | 197° |
| 2026-05-06 16:28 | 59.11474 | 24.46739 | 16130 ft | 372 kts | 197° |
| 2026-05-06 16:28 | 59.08958 | 24.45567 | 16813 ft | 374 kts | 197° |
| 2026-05-06 16:28 | 59.06418 | 24.44382 | 17349 ft | 379 kts | 197° |
| 2026-05-06 16:28 | 59.03820 | 24.43188 | 18003 ft | 381 kts | 197° |
| 2026-05-06 16:29 | 59.01237 | 24.42013 | 18655 ft | 382 kts | 197° |
| 2026-05-06 16:29 | 58.98632 | 24.40833 | 19216 ft | 386 kts | 197° |
| 2026-05-06 16:29 | 58.96000 | 24.39629 | 19742 ft | 391 kts | 197° |
| 2026-05-06 16:29 | 58.93342 | 24.38415 | 20274 ft | 394 kts | 197° |
| 2026-05-06 16:30 | 58.90635 | 24.37184 | 20802 ft | 398 kts | 197° |
| 2026-05-06 16:30 | 58.88829 | 24.36361 | 21123 ft | 401 kts | 197° |
| 2026-05-06 16:30 | 58.85200 | 24.34677 | 21792 ft | 406 kts | 197° |
| 2026-05-06 16:30 | 58.82447 | 24.33350 | 22325 ft | 408 kts | 198° |
| 2026-05-06 16:31 | 58.79674 | 24.32003 | 22716 ft | 415 kts | 197° |
| 2026-05-06 16:31 | 58.76840 | 24.30649 | 23216 ft | 416 kts | 197° |
| 2026-05-06 16:31 | 58.74051 | 24.29345 | 23853 ft | 416 kts | 197° |
| 2026-05-06 16:31 | 58.71207 | 24.28042 | 24327 ft | 418 kts | 197° |
| 2026-05-06 16:32 | 58.68361 | 24.26759 | 24706 ft | 423 kts | 196° |
| 2026-05-06 16:32 | 58.65486 | 24.25472 | 25089 ft | 428 kts | 196° |
| 2026-05-06 16:32 | 58.62556 | 24.24167 | 25466 ft | 432 kts | 196° |
| 2026-05-06 16:32 | 58.59630 | 24.22865 | 25876 ft | 435 kts | 196° |
| 2026-05-06 16:33 | 58.56630 | 24.21525 | 26209 ft | 440 kts | 196° |
| 2026-05-06 16:33 | 58.53659 | 24.20165 | 26662 ft | 440 kts | 197° |
| 2026-05-06 16:33 | 58.50698 | 24.18766 | 27177 ft | 440 kts | 197° |
| 2026-05-06 16:34 | 58.44702 | 24.15928 | 27958 ft | 444 kts | 197° |
| 2026-05-06 16:34 | 58.41687 | 24.14543 | 28282 ft | 448 kts | 196° |
| 2026-05-06 16:34 | 58.38629 | 24.13167 | 28624 ft | 450 kts | 196° |
| 2026-05-06 16:34 | 58.35571 | 24.11812 | 28927 ft | 454 kts | 196° |
| 2026-05-06 16:35 | 58.32487 | 24.10452 | 29265 ft | 456 kts | 196° |
| 2026-05-06 16:35 | 58.29388 | 24.09093 | 29555 ft | 459 kts | 196° |
| 2026-05-06 16:35 | 58.26248 | 24.07731 | 29873 ft | 460 kts | 195° |
| 2026-05-06 16:35 | 58.23129 | 24.06384 | 30159 ft | 463 kts | 196° |
| 2026-05-06 16:36 | 58.19987 | 24.04945 | 30413 ft | 465 kts | 197° |
| 2026-05-06 16:36 | 58.16845 | 24.03467 | 30685 ft | 467 kts | 197° |
| 2026-05-06 16:36 | 58.13655 | 24.01977 | 30941 ft | 469 kts | 197° |
| 2026-05-06 16:36 | 58.10461 | 24.00522 | 31224 ft | 470 kts | 196° |
| 2026-05-06 16:37 | 58.07304 | 23.99105 | 31505 ft | 471 kts | 196° |
| 2026-05-06 16:37 | 58.04123 | 23.97699 | 31739 ft | 473 kts | 196° |
| 2026-05-06 16:37 | 58.00886 | 23.96291 | 31944 ft | 475 kts | 196° |
| 2026-05-06 16:37 | 57.97652 | 23.94900 | 32205 ft | 476 kts | 195° |
| 2026-05-06 16:38 | 57.94427 | 23.93523 | 32419 ft | 476 kts | 195° |
| 2026-05-06 16:38 | 57.91206 | 23.92122 | 32617 ft | 477 kts | 196° |
| 2026-05-06 16:38 | 57.87949 | 23.90726 | 32811 ft | 479 kts | 195° |
| 2026-05-06 16:38 | 57.84684 | 23.89516 | 33028 ft | 480 kts | 193° |
| 2026-05-06 16:39 | 57.81389 | 23.88435 | 33206 ft | 481 kts | 192° |
| 2026-05-06 16:39 | 57.78086 | 23.87406 | 33391 ft | 482 kts | 192° |
| 2026-05-06 16:39 | 57.74773 | 23.86378 | 33615 ft | 481 kts | 192° |
| 2026-05-06 16:39 | 57.71435 | 23.85333 | 33804 ft | 481 kts | 192° |
| 2026-05-06 16:40 | 57.68152 | 23.84277 | 33956 ft | 482 kts | 193° |
| 2026-05-06 16:40 | 57.64856 | 23.83190 | 34113 ft | 482 kts | 193° |
| 2026-05-06 16:40 | 57.61560 | 23.82080 | 34258 ft | 482 kts | 193° |
| 2026-05-06 16:40 | 57.58242 | 23.80936 | 34413 ft | 482 kts | 193° |
| 2026-05-06 16:41 | 57.54966 | 23.79815 | 34555 ft | 482 kts | 193° |
| 2026-05-06 16:41 | 57.51635 | 23.78748 | 34690 ft | 483 kts | 192° |
| 2026-05-06 16:41 | 57.48344 | 23.77750 | 34960 ft | 479 kts | 192° |
| 2026-05-06 16:41 | 57.45038 | 23.76748 | 35152 ft | 478 kts | 192° |
| 2026-05-06 16:42 | 57.41779 | 23.75741 | 35327 ft | 476 kts | 192° |
| 2026-05-06 16:42 | 57.38517 | 23.74723 | 35489 ft | 476 kts | 192° |
| 2026-05-06 16:42 | 57.35247 | 23.73710 | 35618 ft | 475 kts | 192° |
| 2026-05-06 16:42 | 57.31984 | 23.72706 | 35756 ft | 475 kts | 192° |
| 2026-05-06 16:43 | 57.28709 | 23.71686 | 35894 ft | 474 kts | 193° |
| 2026-05-06 16:43 | 57.25472 | 23.70619 | 36036 ft | 473 kts | 193° |
| 2026-05-06 16:43 | 57.22215 | 23.69513 | 36159 ft | 473 kts | 193° |
| 2026-05-06 16:43 | 57.18986 | 23.68425 | 36279 ft | 473 kts | 193° |
| 2026-05-06 16:44 | 57.15760 | 23.67341 | 36424 ft | 472 kts | 193° |
| 2026-05-06 16:44 | 57.12540 | 23.66259 | 36551 ft | 471 kts | 193° |
| 2026-05-06 16:44 | 57.09276 | 23.65163 | 36663 ft | 471 kts | 193° |
| 2026-05-06 16:44 | 57.06032 | 23.64124 | 36781 ft | 471 kts | 192° |
| 2026-05-06 16:45 | 57.02784 | 23.63158 | 36896 ft | 470 kts | 192° |
| 2026-05-06 16:45 | 56.99584 | 23.62217 | 37017 ft | 469 kts | 192° |
| 2026-05-06 16:45 | 56.96371 | 23.61249 | 37129 ft | 469 kts | 192° |
| 2026-05-06 16:45 | 56.93140 | 23.60255 | 37234 ft | 468 kts | 192° |
| 2026-05-06 16:46 | 56.89941 | 23.59255 | 37352 ft | 467 kts | 193° |
| 2026-05-06 16:46 | 56.86728 | 23.58245 | 37470 ft | 466 kts | 193° |
| 2026-05-06 16:46 | 56.83518 | 23.57253 | 37566 ft | 466 kts | 192° |
| 2026-05-06 16:47 | 56.77100 | 23.55352 | 37592 ft | 469 kts | 192° |
| 2026-05-06 16:47 | 56.70649 | 23.53318 | 37594 ft | 471 kts | 193° |
| 2026-05-06 16:48 | 56.64195 | 23.51192 | 37596 ft | 474 kts | 193° |
| 2026-05-06 16:48 | 56.57672 | 23.49139 | 37597 ft | 476 kts | 192° |
| 2026-05-06 16:49 | 56.52207 | 23.47467 | 37600 ft | 478 kts | 192° |
| 2026-05-06 16:49 | 56.45655 | 23.45542 | 37592 ft | 479 kts | 192° |
| 2026-05-06 16:50 | 56.39058 | 23.43577 | 37595 ft | 480 kts | 192° |
| 2026-05-06 16:50 | 56.32419 | 23.41679 | 37594 ft | 482 kts | 190° |
| 2026-05-06 16:51 | 56.25713 | 23.40434 | 37595 ft | 484 kts | 188° |
| 2026-05-06 16:51 | 56.18996 | 23.39341 | 37602 ft | 484 kts | 188° |
| 2026-05-06 16:52 | 56.12281 | 23.38169 | 37601 ft | 485 kts | 188° |
| 2026-05-06 16:52 | 56.05579 | 23.36987 | 37601 ft | 485 kts | 188° |
| 2026-05-06 16:53 | 55.98844 | 23.35843 | 37602 ft | 485 kts | 188° |
| 2026-05-06 16:53 | 55.92143 | 23.34520 | 37593 ft | 485 kts | 189° |
| 2026-05-06 16:54 | 55.85407 | 23.33172 | 37597 ft | 486 kts | 189° |
| 2026-05-06 16:54 | 55.78643 | 23.31887 | 37599 ft | 486 kts | 189° |
| 2026-05-06 16:55 | 55.71941 | 23.30648 | 37600 ft | 486 kts | 188° |
| 2026-05-06 16:55 | 55.65170 | 23.29458 | 37600 ft | 487 kts | 188° |
| 2026-05-06 16:56 | 55.58410 | 23.28338 | 37594 ft | 488 kts | 188° |
| 2026-05-06 16:56 | 55.51627 | 23.27210 | 37598 ft | 488 kts | 188° |
| 2026-05-06 16:57 | 55.44860 | 23.25924 | 37599 ft | 489 kts | 189° |
| 2026-05-06 16:57 | 55.38101 | 23.24594 | 37593 ft | 489 kts | 189° |
| 2026-05-06 16:58 | 55.31318 | 23.23319 | 37597 ft | 489 kts | 189° |
| 2026-05-06 16:58 | 55.24518 | 23.22059 | 37601 ft | 489 kts | 188° |
| 2026-05-06 16:59 | 55.17761 | 23.20837 | 37600 ft | 489 kts | 188° |
| 2026-05-06 16:59 | 55.10969 | 23.19747 | 37602 ft | 489 kts | 188° |
| 2026-05-06 17:00 | 55.04169 | 23.18646 | 37596 ft | 489 kts | 188° |
| 2026-05-06 17:00 | 54.97428 | 23.17539 | 37601 ft | 488 kts | 188° |
| 2026-05-06 17:01 | 54.90670 | 23.16374 | 37603 ft | 488 kts | 188° |
| 2026-05-06 17:01 | 54.83896 | 23.15113 | 37597 ft | 488 kts | 189° |
| 2026-05-06 17:02 | 54.77105 | 23.13819 | 37592 ft | 489 kts | 188° |
| 2026-05-06 17:02 | 54.70361 | 23.12632 | 37595 ft | 490 kts | 188° |
| 2026-05-06 17:03 | 54.63566 | 23.11401 | 37592 ft | 490 kts | 189° |
| 2026-05-06 17:03 | 54.56784 | 23.10247 | 37597 ft | 490 kts | 187° |
| 2026-05-06 17:04 | 54.50001 | 23.09220 | 37593 ft | 490 kts | 188° |
| 2026-05-06 17:04 | 54.43162 | 23.08148 | 37597 ft | 490 kts | 188° |
| 2026-05-06 17:05 | 54.36391 | 23.06999 | 37595 ft | 489 kts | 189° |
| 2026-05-06 17:05 | 54.29671 | 23.05481 | 37603 ft | 486 kts | 196° |
| 2026-05-06 17:06 | 54.23316 | 23.01627 | 37602 ft | 480 kts | 207° |
| 2026-05-06 17:06 | 54.17251 | 22.96918 | 37600 ft | 481 kts | 206° |
| 2026-05-06 17:07 | 54.11003 | 22.92553 | 37595 ft | 482 kts | 204° |
| 2026-05-06 17:07 | 54.04689 | 22.88811 | 37599 ft | 484 kts | 198° |
| 2026-05-06 17:08 | 53.98092 | 22.86277 | 37592 ft | 486 kts | 194° |
| 2026-05-06 17:08 | 53.91443 | 22.84090 | 37594 ft | 487 kts | 194° |
| 2026-05-06 17:09 | 53.84811 | 22.81718 | 37593 ft | 487 kts | 195° |
| 2026-05-06 17:09 | 53.78185 | 22.79179 | 37599 ft | 487 kts | 196° |
| 2026-05-06 17:10 | 53.71558 | 22.76570 | 37601 ft | 488 kts | 195° |
| 2026-05-06 17:10 | 53.64959 | 22.74047 | 37601 ft | 487 kts | 195° |
| 2026-05-06 17:11 | 53.58312 | 22.71502 | 37598 ft | 487 kts | 195° |
| 2026-05-06 17:11 | 53.51710 | 22.69092 | 37597 ft | 487 kts | 194° |
| 2026-05-06 17:12 | 53.45033 | 22.66729 | 37596 ft | 487 kts | 195° |
| 2026-05-06 17:12 | 53.38420 | 22.64303 | 37605 ft | 487 kts | 195° |
| 2026-05-06 17:13 | 53.31831 | 22.61839 | 37599 ft | 487 kts | 195° |
| 2026-05-06 17:13 | 53.25156 | 22.59348 | 37598 ft | 488 kts | 195° |
| 2026-05-06 17:14 | 53.18533 | 22.56934 | 37594 ft | 488 kts | 195° |
| 2026-05-06 17:14 | 53.11905 | 22.54595 | 37591 ft | 489 kts | 194° |
| 2026-05-06 17:15 | 53.05232 | 22.52212 | 37593 ft | 489 kts | 195° |
| 2026-05-06 17:15 | 52.99673 | 22.50084 | 37594 ft | 488 kts | 195° |
| 2026-05-06 17:16 | 52.93080 | 22.47607 | 37595 ft | 488 kts | 195° |
| 2026-05-06 17:16 | 52.86439 | 22.45191 | 37561 ft | 489 kts | 195° |
| 2026-05-06 17:16 | 52.83072 | 22.43982 | 37170 ft | 498 kts | 195° |
| 2026-05-06 17:17 | 52.79652 | 22.42750 | 36683 ft | 509 kts | 195° |
| 2026-05-06 17:17 | 52.76120 | 22.41492 | 36180 ft | 519 kts | 195° |
| 2026-05-06 17:17 | 52.72578 | 22.40260 | 35682 ft | 521 kts | 194° |
| 2026-05-06 17:17 | 52.69041 | 22.39060 | 35176 ft | 509 kts | 194° |
| 2026-05-06 17:18 | 52.65615 | 22.37887 | 34672 ft | 498 kts | 194° |
| 2026-05-06 17:18 | 52.62297 | 22.36735 | 34178 ft | 488 kts | 195° |
| 2026-05-06 17:18 | 52.59012 | 22.35539 | 33679 ft | 479 kts | 195° |
| 2026-05-06 17:18 | 52.55789 | 22.34324 | 33178 ft | 472 kts | 196° |
| 2026-05-06 17:19 | 52.52582 | 22.33125 | 32682 ft | 465 kts | 195° |
| 2026-05-06 17:19 | 52.49455 | 22.31985 | 32184 ft | 459 kts | 195° |
| 2026-05-06 17:19 | 52.46374 | 22.30889 | 31685 ft | 454 kts | 195° |
| 2026-05-06 17:19 | 52.43305 | 22.29820 | 31189 ft | 448 kts | 195° |
| 2026-05-06 17:20 | 52.40275 | 22.28775 | 30692 ft | 443 kts | 195° |
| 2026-05-06 17:20 | 52.37234 | 22.27736 | 30190 ft | 438 kts | 195° |
| 2026-05-06 17:20 | 52.34286 | 22.26744 | 29689 ft | 434 kts | 195° |
| 2026-05-06 17:20 | 52.31349 | 22.25744 | 29181 ft | 430 kts | 195° |
| 2026-05-06 17:21 | 52.28422 | 22.24725 | 28678 ft | 426 kts | 195° |
| 2026-05-06 17:21 | 52.25530 | 22.23700 | 28169 ft | 422 kts | 195° |
| 2026-05-06 17:21 | 52.22700 | 22.22668 | 27663 ft | 418 kts | 197° |
| 2026-05-06 17:21 | 52.19982 | 22.21102 | 27160 ft | 407 kts | 211° |
| 2026-05-06 17:22 | 52.17686 | 22.18515 | 26662 ft | 398 kts | 224° |
| 2026-05-06 17:22 | 52.15853 | 22.15163 | 26159 ft | 387 kts | 240° |
| 2026-05-06 17:22 | 52.14826 | 22.11244 | 25669 ft | 377 kts | 259° |
| 2026-05-06 17:22 | 52.14669 | 22.07080 | 25168 ft | 368 kts | 278° |
| 2026-05-06 17:23 | 52.15290 | 22.03026 | 24662 ft | 364 kts | 290° |
| 2026-05-06 17:23 | 52.16153 | 21.99174 | 24158 ft | 362 kts | 288° |
| 2026-05-06 17:23 | 52.16701 | 21.95200 | 23661 ft | 361 kts | 281° |
| 2026-05-06 17:23 | 52.17017 | 21.91156 | 23159 ft | 359 kts | 278° |
| 2026-05-06 17:24 | 52.17273 | 21.87126 | 22658 ft | 357 kts | 277° |
| 2026-05-06 17:24 | 52.17532 | 21.83100 | 22164 ft | 354 kts | 278° |
| 2026-05-06 17:24 | 52.17848 | 21.79159 | 21664 ft | 352 kts | 280° |
| 2026-05-06 17:24 | 52.18218 | 21.75232 | 21164 ft | 350 kts | 281° |
| 2026-05-06 17:25 | 52.18598 | 21.71273 | 20652 ft | 348 kts | 280° |
| 2026-05-06 17:25 | 52.18973 | 21.67384 | 20146 ft | 346 kts | 280° |
| 2026-05-06 17:25 | 52.19339 | 21.63547 | 19651 ft | 345 kts | 281° |
| 2026-05-06 17:25 | 52.19711 | 21.59636 | 19136 ft | 343 kts | 280° |
| 2026-05-06 17:26 | 52.20068 | 21.55848 | 18640 ft | 342 kts | 279° |
| 2026-05-06 17:26 | 52.20270 | 21.51968 | 18137 ft | 341 kts | 274° |
| 2026-05-06 17:26 | 52.20300 | 21.48131 | 17648 ft | 339 kts | 271° |
| 2026-05-06 17:26 | 52.20263 | 21.44274 | 17151 ft | 337 kts | 270° |
| 2026-05-06 17:27 | 52.20211 | 21.40480 | 16650 ft | 336 kts | 270° |
| 2026-05-06 17:27 | 52.20163 | 21.36632 | 16146 ft | 334 kts | 271° |
| 2026-05-06 17:27 | 52.20119 | 21.32891 | 15654 ft | 333 kts | 269° |
| 2026-05-06 17:27 | 52.19745 | 21.29153 | 15154 ft | 334 kts | 258° |
| 2026-05-06 17:28 | 52.18954 | 21.25573 | 14653 ft | 336 kts | 250° |
| 2026-05-06 17:28 | 52.17899 | 21.22197 | 14160 ft | 337 kts | 240° |
| 2026-05-06 17:28 | 52.16247 | 21.19449 | 13658 ft | 344 kts | 220° |
| 2026-05-06 17:28 | 52.14087 | 21.17753 | 13201 ft | 348 kts | 202° |
| 2026-05-06 17:29 | 52.11681 | 21.17203 | 12813 ft | 351 kts | 181° |
| 2026-05-06 17:29 | 52.09296 | 21.17988 | 12440 ft | 351 kts | 164° |
| 2026-05-06 17:29 | 52.07084 | 21.19621 | 12073 ft | 348 kts | 154° |
| 2026-05-06 17:29 | 52.05002 | 21.21575 | 11699 ft | 345 kts | 150° |
| 2026-05-06 17:30 | 52.02967 | 21.23631 | 11314 ft | 340 kts | 150° |
| 2026-05-06 17:30 | 52.01013 | 21.25612 | 10929 ft | 330 kts | 151° |
| 2026-05-06 17:30 | 51.98999 | 21.27494 | 10546 ft | 320 kts | 154° |
| 2026-05-06 17:30 | 51.97055 | 21.29129 | 10173 ft | 312 kts | 157° |
| 2026-05-06 17:31 | 51.95135 | 21.30647 | 9796 ft | 306 kts | 157° |
| 2026-05-06 17:31 | 51.93218 | 21.32190 | 9415 ft | 303 kts | 156° |
| 2026-05-06 17:31 | 51.91261 | 21.33344 | 9035 ft | 298 kts | 174° |
| 2026-05-06 17:31 | 51.89249 | 21.33204 | 8767 ft | 286 kts | 199° |
| 2026-05-06 17:32 | 51.87567 | 21.31742 | 8626 ft | 264 kts | 226° |
| 2026-05-06 17:32 | 51.86518 | 21.29525 | 8592 ft | 234 kts | 248° |
| 2026-05-06 17:32 | 51.86130 | 21.27123 | 8598 ft | 212 kts | 269° |
| 2026-05-06 17:32 | 51.86330 | 21.24838 | 8612 ft | 203 kts | 292° |
| 2026-05-06 17:33 | 51.87081 | 21.22935 | 8607 ft | 203 kts | 309° |
| 2026-05-06 17:33 | 51.88044 | 21.21487 | 8541 ft | 207 kts | 319° |
| 2026-05-06 17:33 | 51.89262 | 21.20171 | 8297 ft | 210 kts | 327° |
| 2026-05-06 17:33 | 51.90558 | 21.19112 | 7986 ft | 211 kts | 332° |
| 2026-05-06 17:34 | 51.91890 | 21.18112 | 7515 ft | 212 kts | 331° |
| 2026-05-06 17:34 | 51.93239 | 21.17077 | 7012 ft | 216 kts | 334° |
| 2026-05-06 17:34 | 51.94764 | 21.16793 | 6505 ft | 228 kts | 3° |
| 2026-05-06 17:34 | 51.96223 | 21.17907 | 6018 ft | 239 kts | 33° |
| 2026-05-06 17:35 | 51.97157 | 21.20154 | 5506 ft | 247 kts | 64° |
| 2026-05-06 17:35 | 51.97277 | 21.22930 | 5014 ft | 252 kts | 96° |
| 2026-05-06 17:35 | 51.96605 | 21.25507 | 4627 ft | 246 kts | 119° |
| 2026-05-06 17:36 | 51.94565 | 21.29773 | 3850 ft | 234 kts | 141° |
| 2026-05-06 17:36 | 51.93123 | 21.30781 | 3471 ft | 219 kts | 176° |
| 2026-05-06 17:36 | 51.91702 | 21.30357 | 3126 ft | 203 kts | 210° |
| 2026-05-06 17:36 | 51.90782 | 21.28742 | 2803 ft | 191 kts | 247° |
| 2026-05-06 17:37 | 51.90708 | 21.26696 | 2652 ft | 183 kts | 285° |
| 2026-05-06 17:37 | 51.91432 | 21.25027 | 2619 ft | 186 kts | 316° |
| 2026-05-06 17:37 | 51.92490 | 21.23801 | 2604 ft | 188 kts | 326° |
| 2026-05-06 17:37 | 51.93546 | 21.22535 | 2556 ft | 189 kts | 317° |
| 2026-05-06 17:38 | 51.94411 | 21.20898 | 2555 ft | 191 kts | 304° |
| 2026-05-06 17:38 | 51.95027 | 21.18991 | 2701 ft | 196 kts | 296° |
| 2026-05-06 17:38 | 51.95641 | 21.16993 | 2915 ft | 196 kts | 296° |
| 2026-05-06 17:38 | 51.96369 | 21.15122 | 3024 ft | 201 kts | 310° |
| 2026-05-06 17:39 | 51.97405 | 21.13586 | 3111 ft | 201 kts | 319° |
| 2026-05-06 17:39 | 51.98591 | 21.12379 | 3152 ft | 197 kts | 330° |
| 2026-05-06 17:39 | 51.99758 | 21.11385 | 3632 ft | 187 kts | 329° |
| 2026-05-06 17:39 | 52.00914 | 21.10413 | 3564 ft | 182 kts | 327° |
| 2026-05-06 17:40 | 52.01672 | 21.09732 | 3306 ft | 182 kts | 329° |
| 2026-05-06 17:40 | 52.03164 | 21.08409 | 2987 ft | 181 kts | 327° |
| 2026-05-06 17:40 | 52.04267 | 21.07480 | 2736 ft | 174 kts | 329° |
| 2026-05-06 17:40 | 52.04959 | 21.06861 | 2572 ft | 169 kts | 329° |
| 2026-05-06 17:41 | 52.06001 | 21.05956 | 2291 ft | 166 kts | 330° |
| 2026-05-06 17:41 | 52.07005 | 21.05090 | 2044 ft | 162 kts | 330° |
| 2026-05-06 17:41 | 52.07996 | 21.04204 | 1892 ft | 161 kts | 328° |
| 2026-05-06 17:41 | 52.08976 | 21.03332 | 1721 ft | 162 kts | 330° |
| 2026-05-06 17:42 | 52.09950 | 21.02428 | 1482 ft | 161 kts | 329° |
| 2026-05-06 17:42 | 52.10943 | 21.01595 | 1204 ft | 156 kts | 329° |
| 2026-05-06 17:42 | 52.11878 | 21.00799 | 1014 ft | 152 kts | 330° |
| 2026-05-06 17:42 | 52.12803 | 20.99990 | 858 ft | 151 kts | 330° |
| 2026-05-06 17:43 | 52.13719 | 20.99188 | 711 ft | 151 kts | 329° |
| 2026-05-06 17:43 | 52.14643 | 20.98363 | 501 ft | 145 kts | 329° |
| 2026-05-06 17:43 | 52.15461 | 20.97630 | 375 ft | 114 kts | 333° |
| 2026-05-06 17:43 | 52.16001 | 20.97182 | 375 ft | 68 kts | 329° |
| 2026-05-06 17:44 | 52.16343 | 20.96894 | 375 ft | 45 kts | 334° |
| 2026-05-06 17:44 | 52.16600 | 20.96694 | 375 ft | 39 kts | 336° |
| 2026-05-06 17:44 | 52.16825 | 20.96541 | 375 ft | 31 kts | 342° |
| 2026-05-06 17:44 | 52.16973 | 20.96515 | 375 ft | 6 kts | 1° |
| 2026-05-06 17:45 | 52.16975 | 20.96515 | 375 ft | 0 kts | 1° |
| 2026-05-06 17:45 | 52.17036 | 20.96519 | 375 ft | 9 kts | 7° |
| 2026-05-06 17:45 | 52.17065 | 20.96549 | 375 ft | 4 kts | 39° |
| 2026-05-06 17:45 | 52.17110 | 20.96632 | 375 ft | 9 kts | 59° |
| 2026-05-06 17:46 | 52.17133 | 20.96702 | 375 ft | 7 kts | 62° |
| 2026-05-06 17:46 | 52.17150 | 20.96753 | 375 ft | 3 kts | 64° |
| 2026-05-06 17:46 | 52.17151 | 20.96812 | 375 ft | 3 kts | 117° |
| 2026-05-06 17:46 | 52.17109 | 20.96882 | 375 ft | 8 kts | 148° |
| 2026-05-06 17:47 | 52.17068 | 20.96918 | 375 ft | 5 kts | 152° |
| 2026-05-06 17:47 | 52.17038 | 20.96950 | 375 ft | 13 kts | 138° |
| 2026-05-06 17:47 | 52.17030 | 20.97009 | 375 ft | 3 kts | 72° |
| 2026-05-06 17:47 | 52.17035 | 20.97034 | 375 ft | 2 kts | 74° |
| 2026-05-06 17:48 | 52.17041 | 20.97069 | 375 ft | 2 kts | 71° |
| 2026-05-06 17:48 | 52.17042 | 20.97073 | 375 ft | 0 kts | 71° |